createdAt,value
2018-07-23T00:02:22.853Z,55.43
2018-07-23T00:04:56.288Z,55.98
2018-07-23T00:07:29.734Z,55.85
2018-07-23T00:10:03.292Z,56.39
2018-07-23T00:12:36.898Z,56.21
2018-07-23T00:15:10.350Z,55.97
2018-07-23T00:17:43.945Z,56.28
2018-07-23T00:20:17.531Z,56.24
2018-07-23T00:22:51.020Z,56.07
2018-07-23T00:25:24.658Z,56.37
2018-07-23T00:27:58.260Z,56.41
2018-07-23T00:30:31.833Z,56.55
2018-07-23T00:33:05.343Z,56.95
2018-07-23T00:35:38.933Z,57.38
2018-07-23T00:38:12.499Z,57.69
2018-07-23T00:40:46.019Z,57.60
2018-07-23T00:43:19.553Z,58.07
2018-07-23T00:45:53.137Z,57.61
2018-07-23T00:48:26.679Z,58.07
2018-07-23T00:51:00.267Z,58.57
2018-07-23T00:53:33.886Z,58.70
2018-07-23T00:56:07.501Z,58.78
2018-07-23T00:58:40.971Z,58.52
2018-07-23T01:01:14.752Z,57.98
2018-07-23T01:03:48.354Z,58.29
2018-07-23T01:06:21.963Z,59.27
2018-07-23T01:08:55.426Z,59.32
2018-07-23T01:11:28.803Z,58.57
2018-07-23T01:14:02.360Z,58.31
2018-07-23T01:16:36.057Z,58.35
2018-07-23T01:19:09.661Z,58.34
2018-07-23T01:21:43.221Z,59.20
2018-07-23T01:24:16.687Z,58.77
2018-07-23T01:26:50.228Z,58.75
2018-07-23T01:29:23.826Z,58.70
2018-07-23T01:31:57.394Z,58.58
2018-07-23T01:34:31.133Z,58.51
2018-07-23T01:37:04.983Z,59.45
2018-07-23T01:39:38.576Z,59.28
2018-07-23T01:42:12.305Z,58.87
2018-07-23T01:44:45.890Z,58.90
2018-07-23T01:47:19.442Z,58.65
2018-07-23T01:49:53.007Z,58.56
2018-07-23T01:52:26.669Z,59.30
2018-07-23T01:55:00.267Z,59.15
2018-07-23T01:57:33.856Z,58.90
2018-07-23T02:00:07.816Z,58.76
2018-07-23T02:02:41.446Z,58.90
2018-07-23T02:05:15.020Z,58.76
2018-07-23T02:07:48.672Z,59.04
2018-07-23T02:10:22.342Z,59.00
2018-07-23T02:12:55.878Z,59.39
2018-07-23T02:15:29.479Z,59.15
2018-07-23T02:18:03.077Z,59.26
2018-07-23T02:20:36.678Z,59.42
2018-07-23T02:23:10.295Z,59.18
2018-07-23T02:25:43.888Z,59.31
2018-07-23T02:28:17.483Z,59.25
2018-07-23T02:30:50.910Z,59.42
2018-07-23T02:33:24.517Z,59.24
2018-07-23T02:35:58.135Z,59.08
2018-07-23T02:38:31.762Z,59.27
2018-07-23T02:41:05.426Z,59.34
2018-07-23T02:43:39.018Z,59.14
2018-07-23T02:46:12.447Z,59.17
2018-07-23T02:48:46.072Z,59.01
2018-07-23T02:51:19.682Z,59.11
2018-07-23T02:53:53.234Z,59.11
2018-07-23T02:56:26.841Z,59.25
2018-07-23T02:59:00.415Z,59.29
2018-07-23T03:01:34.048Z,59.32
2018-07-23T03:04:07.612Z,59.61
2018-07-23T03:06:41.306Z,59.48
2018-07-23T03:09:14.908Z,59.65
2018-07-23T03:11:48.616Z,59.33
2018-07-23T03:14:22.213Z,59.58
2018-07-23T03:16:55.951Z,59.42
2018-07-23T03:19:29.549Z,59.58
2018-07-23T03:22:03.192Z,59.37
2018-07-23T03:24:36.743Z,59.44
2018-07-23T03:27:10.286Z,59.56
2018-07-23T03:29:43.882Z,59.57
2018-07-23T03:32:17.685Z,59.95
2018-07-23T03:34:51.260Z,59.60
2018-07-23T03:37:24.745Z,59.75
2018-07-23T03:39:58.278Z,59.74
2018-07-23T03:42:31.771Z,60.10
2018-07-23T03:45:06.368Z,59.93
2018-07-23T03:47:39.985Z,59.84
2018-07-23T03:50:13.562Z,59.90
2018-07-23T03:52:47.176Z,60.11
2018-07-23T03:55:20.771Z,59.59
2018-07-23T03:57:54.487Z,59.95
2018-07-23T04:00:28.079Z,60.21
2018-07-23T04:03:01.649Z,60.15
2018-07-23T04:05:35.242Z,60.08
2018-07-23T04:08:08.843Z,60.04
2018-07-23T04:10:42.443Z,59.89
2018-07-23T04:13:16.023Z,59.94
2018-07-23T04:15:49.654Z,60.32
2018-07-23T04:18:23.176Z,60.28
2018-07-23T04:20:56.666Z,60.54
2018-07-23T04:23:30.256Z,60.27
2018-07-23T04:26:03.875Z,60.25
2018-07-23T04:28:37.390Z,60.19
2018-07-23T04:31:10.914Z,60.17
2018-07-23T04:33:44.560Z,59.82
2018-07-23T04:36:18.192Z,59.96
2018-07-23T04:38:51.734Z,59.66
2018-07-23T04:41:25.299Z,59.21
2018-07-23T04:43:58.850Z,59.19
2018-07-23T04:46:32.504Z,58.84
2018-07-23T04:49:06.074Z,58.55
2018-07-23T04:51:39.728Z,58.15
2018-07-23T04:54:13.337Z,58.36
2018-07-23T04:56:46.937Z,58.23
2018-07-23T04:59:20.482Z,58.47
2018-07-23T05:01:54.155Z,58.19
2018-07-23T05:04:27.757Z,58.16
2018-07-23T05:07:01.258Z,57.82
2018-07-23T05:09:34.815Z,58.63
2018-07-23T05:12:08.325Z,57.88
2018-07-23T05:14:41.903Z,57.57
2018-07-23T05:17:15.531Z,57.66
2018-07-23T05:19:49.122Z,57.40
2018-07-23T05:22:22.682Z,57.65
2018-07-23T05:24:56.218Z,57.42
2018-07-23T05:27:29.938Z,57.29
2018-07-23T05:30:03.515Z,56.75
2018-07-23T05:32:37.147Z,56.55
2018-07-23T05:35:10.680Z,56.71
2018-07-23T05:37:44.276Z,56.46
2018-07-23T05:40:17.785Z,56.02
2018-07-23T05:42:51.263Z,55.47
2018-07-23T05:45:24.815Z,55.77
2018-07-23T05:47:59.208Z,55.56
2018-07-23T05:50:32.812Z,55.63
2018-07-23T05:53:06.419Z,55.96
2018-07-23T05:55:39.917Z,55.74
2018-07-23T05:58:13.410Z,55.83
2018-07-23T06:00:46.983Z,55.92
2018-07-23T06:03:20.502Z,55.86
2018-07-23T06:05:54.099Z,55.28
2018-07-23T06:08:27.714Z,54.92
2018-07-23T06:11:01.326Z,54.43
2018-07-23T06:13:35.010Z,54.33
2018-07-23T06:16:08.599Z,54.47
2018-07-23T06:18:42.287Z,53.51
2018-07-23T06:21:15.961Z,53.42
2018-07-23T06:23:49.756Z,54.79
2018-07-23T06:26:23.266Z,53.46
2018-07-23T06:28:56.877Z,53.10
2018-07-23T06:31:30.568Z,52.13
2018-07-23T06:34:04.000Z,51.78
2018-07-23T06:36:37.580Z,50.62
2018-07-23T06:39:12.130Z,50.27
2018-07-23T06:41:45.664Z,50.38
2018-07-23T06:44:19.797Z,50.63
2018-07-23T06:46:53.367Z,49.46
2018-07-23T06:49:26.926Z,49.29
2018-07-23T06:52:00.555Z,49.62
2018-07-23T06:54:34.205Z,49.71
2018-07-23T06:57:07.643Z,49.50
2018-07-23T06:59:41.237Z,48.42
2018-07-23T07:02:14.848Z,47.93
2018-07-23T07:04:48.443Z,47.66
2018-07-23T07:07:22.013Z,47.84
2018-07-23T07:09:55.539Z,47.79
2018-07-23T07:12:29.021Z,46.70
2018-07-23T07:15:02.690Z,46.25
2018-07-23T07:17:36.243Z,46.42
2018-07-23T07:20:09.907Z,46.29
2018-07-23T07:22:43.553Z,45.95
2018-07-23T07:25:17.046Z,46.38
2018-07-23T07:27:50.578Z,45.69
2018-07-23T07:30:24.028Z,45.89
2018-07-23T07:32:57.583Z,45.64
2018-07-23T07:35:31.320Z,45.54
2018-07-23T07:38:05.170Z,44.56
2018-07-23T07:40:38.794Z,43.87
2018-07-23T07:43:12.326Z,43.21
2018-07-23T07:45:45.772Z,42.92
2018-07-23T07:48:19.404Z,43.13
2018-07-23T07:50:52.976Z,43.33
2018-07-23T07:53:26.712Z,42.62
2018-07-23T07:56:00.141Z,43.16
2018-07-23T07:58:33.733Z,43.11
2018-07-23T08:01:07.311Z,43.66
2018-07-23T08:03:40.755Z,42.01
2018-07-23T08:06:14.452Z,42.30
2018-07-23T08:08:48.030Z,41.44
2018-07-23T08:11:21.655Z,41.46
2018-07-23T08:13:55.088Z,40.97
2018-07-23T08:16:28.689Z,40.99
2018-07-23T08:19:02.160Z,41.04
2018-07-23T08:21:36.262Z,40.75
2018-07-23T08:24:09.800Z,39.62
2018-07-23T08:26:43.288Z,41.14
2018-07-23T08:29:16.819Z,40.31
2018-07-23T08:31:50.392Z,41.02
2018-07-23T08:34:23.931Z,40.05
2018-07-23T08:36:57.490Z,39.96
2018-07-23T08:39:31.046Z,40.12
2018-07-23T08:42:04.652Z,39.87
2018-07-23T08:44:38.257Z,39.66
2018-07-23T08:47:11.799Z,38.40
2018-07-23T08:49:45.465Z,39.27
2018-07-23T08:52:19.032Z,39.84
2018-07-23T08:54:52.624Z,38.25
2018-07-23T08:57:26.217Z,38.34
2018-07-23T08:59:59.870Z,38.12
2018-07-23T09:02:33.299Z,38.81
2018-07-23T09:05:07.057Z,38.10
2018-07-23T09:07:40.602Z,38.04
2018-07-23T09:10:14.029Z,36.85
2018-07-23T09:12:47.393Z,37.34
2018-07-23T09:15:20.768Z,37.09
2018-07-23T09:17:54.236Z,36.35
2018-07-23T09:20:27.600Z,36.13
2018-07-23T09:23:00.979Z,36.95
2018-07-23T09:25:39.667Z,35.77
2018-07-23T09:28:13.012Z,35.64
2018-07-23T09:30:51.600Z,35.49
2018-07-23T09:33:25.547Z,35.40
2018-07-23T09:35:58.976Z,35.50
2018-07-23T09:38:32.328Z,35.58
2018-07-23T09:41:05.772Z,36.02
2018-07-23T09:43:39.134Z,36.49
2018-07-23T09:46:12.521Z,35.91
2018-07-23T09:48:45.871Z,36.30
2018-07-23T09:51:19.264Z,35.87
2018-07-23T09:53:52.703Z,34.02
2018-07-23T09:56:26.064Z,34.73
2018-07-23T09:58:59.448Z,34.34
2018-07-23T10:01:32.861Z,33.83
2018-07-23T10:04:06.728Z,34.34
2018-07-23T10:06:40.092Z,33.54
2018-07-23T10:09:13.440Z,33.64
2018-07-23T10:11:46.809Z,34.73
2018-07-23T10:14:20.172Z,33.53
2018-07-23T10:16:53.653Z,31.32
2018-07-23T10:19:27.037Z,32.48
2018-07-23T10:22:00.459Z,32.54
2018-07-23T10:24:33.889Z,32.08
2018-07-23T10:27:08.072Z,31.48
2018-07-23T10:29:41.480Z,32.17
2018-07-23T10:32:14.858Z,32.86
2018-07-23T10:34:48.247Z,31.18
2018-07-23T10:37:21.704Z,32.71
2018-07-23T10:39:55.113Z,32.69
2018-07-23T10:42:28.506Z,32.13
2018-07-23T10:45:01.931Z,29.97
2018-07-23T10:47:35.275Z,31.08
2018-07-23T10:50:08.768Z,30.88
2018-07-23T10:52:42.232Z,30.46
2018-07-23T10:55:15.671Z,30.92
2018-07-23T10:57:49.053Z,31.63
2018-07-23T11:00:22.460Z,30.62
2018-07-23T11:02:55.850Z,30.46
2018-07-23T11:05:29.228Z,31.00
2018-07-23T11:08:02.630Z,30.14
2018-07-23T11:10:36.100Z,30.60
2018-07-23T11:13:09.463Z,29.58
2018-07-23T11:15:42.855Z,29.86
2018-07-23T11:18:16.255Z,30.86
2018-07-23T11:20:49.627Z,29.53
2018-07-23T11:23:22.997Z,30.02
2018-07-23T11:25:56.412Z,29.88
2018-07-23T11:28:29.804Z,27.98
2018-07-23T11:31:03.206Z,27.95
2018-07-23T11:33:36.568Z,30.35
2018-07-23T11:36:09.943Z,29.85
2018-07-23T11:38:43.338Z,29.21
2018-07-23T11:41:16.720Z,27.45
2018-07-23T11:43:50.091Z,28.24
2018-07-23T11:46:24.984Z,26.63
2018-07-23T11:48:56.848Z,28.34
2018-07-23T11:51:30.239Z,27.53
2018-07-23T11:54:04.309Z,27.60
2018-07-23T11:56:37.728Z,27.32
2018-07-23T11:59:11.059Z,27.41
2018-07-23T12:01:44.525Z,27.78
2018-07-23T12:04:17.931Z,28.51
2018-07-23T12:06:51.340Z,28.40
2018-07-23T12:09:24.671Z,28.84
2018-07-23T12:11:58.138Z,27.39
2018-07-23T12:14:31.498Z,29.17
2018-07-23T12:17:04.953Z,29.63
2018-07-23T12:19:38.334Z,28.09
2018-07-23T12:22:11.723Z,28.43
2018-07-23T12:24:45.110Z,27.75
2018-07-23T12:27:18.495Z,27.57
2018-07-23T12:29:51.854Z,27.30
2018-07-23T12:32:25.270Z,28.54
2018-07-23T12:34:58.625Z,28.51
2018-07-23T12:37:32.004Z,28.56
2018-07-23T12:40:05.911Z,28.55
2018-07-23T12:42:39.248Z,27.78
2018-07-23T12:45:12.609Z,29.25
2018-07-23T12:47:46.058Z,29.00
2018-07-23T12:50:19.440Z,28.12
2018-07-23T12:52:52.823Z,29.19
2018-07-23T12:55:26.184Z,28.92
2018-07-23T12:57:59.611Z,28.81
2018-07-23T13:00:33.026Z,29.31
2018-07-23T13:03:06.413Z,29.09
2018-07-23T13:05:39.757Z,28.29
2018-07-23T13:08:13.179Z,27.78
2018-07-23T13:10:46.571Z,28.27
2018-07-23T13:13:19.935Z,28.18
2018-07-23T13:15:53.281Z,28.79
2018-07-23T13:18:26.716Z,28.18
2018-07-23T13:21:00.094Z,27.36
2018-07-23T13:23:33.500Z,27.29
2018-07-23T13:26:07.128Z,28.14
2018-07-23T13:28:40.565Z,27.83
2018-07-23T13:31:13.933Z,28.68
2018-07-23T13:33:47.315Z,27.34
2018-07-23T13:36:20.701Z,27.41
2018-07-23T13:38:54.234Z,27.97
2018-07-23T13:41:27.588Z,27.94
2018-07-23T13:44:01.015Z,27.78
2018-07-23T13:46:34.375Z,28.12
2018-07-23T13:49:07.761Z,28.76
2018-07-23T13:51:41.142Z,27.96
2018-07-23T13:54:14.530Z,28.89
2018-07-23T13:56:47.867Z,28.18
2018-07-23T13:59:21.228Z,27.32
2018-07-23T14:01:54.578Z,28.21
2018-07-23T14:04:27.944Z,27.41
2018-07-23T14:07:01.336Z,28.00
2018-07-23T14:09:34.721Z,28.40
2018-07-23T14:12:08.118Z,27.86
2018-07-23T14:14:41.491Z,28.52
2018-07-23T14:17:14.841Z,28.49
2018-07-23T14:19:48.252Z,29.06
2018-07-23T14:22:21.797Z,29.14
2018-07-23T14:24:55.216Z,29.63
2018-07-23T14:27:28.646Z,29.36
2018-07-23T14:30:02.141Z,29.48
2018-07-23T14:32:35.538Z,29.37
2018-07-23T14:35:08.917Z,30.09
2018-07-23T14:37:42.306Z,29.02
2018-07-23T14:40:15.696Z,29.20
2018-07-23T14:42:49.120Z,29.26
2018-07-23T14:45:22.485Z,28.68
2018-07-23T14:47:55.883Z,28.77
2018-07-23T14:50:29.255Z,28.82
2018-07-23T14:53:02.675Z,28.07
2018-07-23T14:55:36.092Z,28.41
2018-07-23T14:58:09.497Z,29.37
2018-07-23T15:00:42.890Z,29.38
2018-07-23T15:03:16.272Z,29.95
2018-07-23T15:05:49.656Z,29.87
2018-07-23T15:08:23.038Z,29.46
2018-07-23T15:10:56.417Z,29.98
2018-07-23T15:13:29.819Z,31.16
2018-07-23T15:16:03.214Z,30.95
2018-07-23T15:18:36.611Z,30.76
2018-07-23T15:21:09.976Z,30.83
2018-07-23T15:23:43.356Z,30.71
2018-07-23T15:26:16.715Z,31.06
2018-07-23T15:28:50.115Z,31.78
2018-07-23T15:31:23.514Z,31.19
2018-07-23T15:33:56.888Z,31.09
2018-07-23T15:36:30.259Z,30.25
2018-07-23T15:39:04.576Z,30.80
2018-07-23T15:41:38.101Z,30.36
2018-07-23T15:44:11.839Z,31.00
2018-07-23T15:46:45.089Z,30.19
2018-07-23T15:49:18.671Z,30.00
2018-07-23T15:51:52.032Z,31.30
2018-07-23T15:54:25.456Z,31.02
2018-07-23T15:56:58.799Z,30.59
2018-07-23T15:59:32.164Z,30.75
2018-07-23T16:02:05.547Z,30.40
2018-07-23T16:04:39.047Z,30.58
2018-07-23T16:07:12.404Z,30.46
2018-07-23T16:09:45.864Z,30.74
2018-07-23T16:12:19.223Z,30.08
2018-07-23T16:14:52.735Z,30.62
2018-07-23T16:17:26.205Z,30.62
2018-07-23T16:20:00.003Z,30.83
2018-07-23T16:22:33.427Z,31.05
2018-07-23T16:25:07.580Z,30.77
2018-07-23T16:27:41.090Z,31.04
2018-07-23T16:30:15.185Z,30.92
2018-07-23T16:32:48.592Z,31.27
2018-07-23T16:35:22.050Z,30.79
2018-07-23T16:37:55.499Z,30.85
2018-07-23T16:40:29.504Z,30.89
2018-07-23T16:43:03.111Z,31.69
2018-07-23T16:45:36.516Z,31.36
2018-07-23T16:48:09.869Z,32.18
2018-07-23T16:50:43.244Z,31.70
2018-07-23T16:53:16.676Z,31.74
2018-07-23T16:55:50.083Z,31.56
2018-07-23T16:58:23.659Z,32.11
2018-07-23T17:00:57.038Z,31.58
2018-07-23T17:03:30.478Z,32.01
2018-07-23T17:06:04.055Z,32.23
2018-07-23T17:08:37.418Z,31.60
2018-07-23T17:11:10.782Z,31.48
2018-07-23T17:13:44.255Z,32.05
2018-07-23T17:16:17.678Z,31.44
2018-07-23T17:18:51.045Z,31.96
2018-07-23T17:21:24.481Z,32.13
2018-07-23T17:23:57.816Z,31.77
2018-07-23T17:26:31.395Z,32.19
2018-07-23T17:29:04.746Z,33.10
2018-07-23T17:31:38.142Z,32.99
2018-07-23T17:34:11.534Z,33.20
2018-07-23T17:36:44.917Z,32.44
2018-07-23T17:39:18.279Z,33.18
2018-07-23T17:41:51.653Z,32.18
2018-07-23T17:44:25.003Z,34.24
2018-07-23T17:46:58.387Z,33.53
2018-07-23T17:49:31.747Z,33.25
2018-07-23T17:52:05.178Z,33.21
2018-07-23T17:54:39.125Z,33.84
2018-07-23T17:57:12.528Z,33.36
2018-07-23T17:59:45.889Z,33.32
2018-07-23T18:02:20.215Z,33.89
2018-07-23T18:04:53.974Z,33.72
2018-07-23T18:07:28.231Z,34.42
2018-07-23T18:10:02.433Z,33.99
2018-07-23T18:12:36.555Z,34.77
2018-07-23T18:15:12.137Z,34.65
2018-07-23T18:17:45.659Z,35.68
2018-07-23T18:20:19.112Z,34.75
2018-07-23T18:22:52.896Z,35.19
2018-07-23T18:25:26.642Z,35.78
2018-07-23T18:28:00.446Z,35.43
2018-07-23T18:30:33.841Z,35.79
2018-07-23T18:33:07.263Z,36.00
2018-07-23T18:35:40.695Z,36.79
2018-07-23T18:38:14.517Z,36.48
2018-07-23T18:40:48.268Z,37.11
2018-07-23T18:43:22.187Z,38.62
2018-07-23T18:45:56.076Z,38.46
2018-07-23T18:49:53.779Z,38.95
2018-07-23T18:52:28.323Z,41.08
2018-07-23T18:55:02.840Z,39.56
2018-07-23T18:57:36.402Z,40.63
2018-07-23T19:00:10.212Z,40.78
2018-07-23T19:02:43.586Z,41.03
2018-07-23T19:05:16.979Z,41.14
2018-07-23T19:07:50.351Z,41.74
2018-07-23T19:10:23.756Z,41.46
2018-07-23T19:12:57.112Z,42.28
2018-07-23T19:15:30.588Z,41.61
2018-07-23T19:18:03.995Z,42.42
2018-07-23T19:20:37.391Z,42.47
2018-07-23T19:23:10.763Z,42.92
2018-07-23T19:25:44.161Z,42.85
2018-07-23T19:28:17.531Z,44.18
2018-07-23T19:30:51.000Z,43.80
2018-07-23T19:33:24.385Z,44.47
2018-07-23T19:35:57.840Z,44.08
2018-07-23T19:38:31.247Z,45.87
2018-07-23T19:41:04.703Z,45.05
2018-07-23T19:43:38.838Z,44.54
2018-07-23T19:46:12.508Z,45.34
2018-07-23T19:48:45.955Z,45.05
2018-07-23T19:51:19.336Z,45.31
2018-07-23T19:53:52.700Z,45.89
2018-07-23T19:56:26.085Z,46.18
2018-07-23T19:58:59.463Z,46.67
2018-07-23T20:01:33.099Z,46.86
2018-07-23T20:04:06.676Z,47.87
2018-07-23T20:06:40.132Z,47.72
2018-07-23T20:09:13.653Z,47.59
2018-07-23T20:11:47.039Z,47.64
2018-07-23T20:14:20.498Z,48.29
2018-07-23T20:16:53.896Z,48.48
2018-07-23T20:19:27.450Z,49.32
2018-07-23T20:22:00.856Z,50.31
2018-07-23T20:24:35.297Z,49.96
2018-07-23T20:27:08.715Z,49.49
2018-07-23T20:29:42.153Z,50.94
2018-07-23T20:32:16.636Z,50.30
2018-07-23T20:34:50.058Z,50.84
2018-07-23T20:37:24.107Z,50.88
2018-07-23T20:39:57.528Z,51.32
2018-07-23T20:42:31.255Z,51.83
2018-07-23T20:45:05.115Z,52.24
2018-07-23T20:47:38.591Z,52.43
2018-07-23T20:50:12.018Z,52.17
2018-07-23T20:52:45.837Z,51.04
2018-07-23T20:55:19.251Z,52.08
2018-07-23T20:57:52.726Z,52.93
2018-07-23T21:00:26.160Z,52.28
2018-07-23T21:02:59.544Z,53.20
2018-07-23T21:05:33.334Z,52.48
2018-07-23T21:08:06.852Z,52.97
2018-07-23T21:10:40.226Z,52.86
2018-07-23T21:13:13.629Z,53.43
2018-07-23T21:15:47.053Z,53.26
2018-07-23T21:18:20.499Z,52.85
2018-07-23T21:20:53.927Z,53.60
2018-07-23T21:23:27.368Z,53.81
2018-07-23T21:26:00.867Z,53.69
2018-07-23T21:28:34.288Z,53.02
2018-07-23T21:31:08.147Z,53.45
2018-07-23T21:33:41.555Z,53.77
2018-07-23T21:36:14.964Z,54.01
2018-07-23T21:38:48.365Z,53.24
2018-07-23T21:41:21.761Z,53.65
2018-07-23T21:43:55.199Z,53.54
2018-07-23T21:46:28.624Z,53.35
2018-07-23T21:49:02.104Z,53.46
2018-07-23T21:51:35.510Z,54.46
2018-07-23T21:54:09.000Z,54.14
2018-07-23T21:56:42.371Z,53.57
2018-07-23T21:59:15.850Z,53.87
2018-07-23T22:01:49.269Z,53.83
2018-07-23T22:04:22.666Z,54.21
2018-07-23T22:06:56.045Z,54.16
2018-07-23T22:09:29.496Z,54.14
2018-07-23T22:12:02.953Z,53.96
2018-07-23T22:14:36.360Z,53.69
2018-07-23T22:17:09.771Z,53.83
2018-07-23T22:19:43.196Z,54.44
2018-07-23T22:22:16.581Z,54.40
2018-07-23T22:24:50.021Z,54.38
2018-07-23T22:27:23.503Z,54.57
2018-07-23T22:29:56.885Z,55.31
2018-07-23T22:32:30.325Z,54.88
2018-07-23T22:35:03.741Z,55.02
2018-07-23T22:37:37.207Z,55.18
2018-07-23T22:40:10.563Z,56.11
2018-07-23T22:42:44.009Z,55.99
2018-07-23T22:45:17.402Z,55.83
2018-07-23T22:47:50.787Z,55.43
2018-07-23T22:50:24.205Z,55.99
2018-07-23T22:52:57.711Z,55.91
2018-07-23T22:55:31.085Z,55.88
2018-07-23T22:58:04.817Z,56.13
2018-07-23T23:00:38.219Z,55.79
2018-07-23T23:03:11.594Z,55.80
2018-07-23T23:05:44.984Z,56.35
2018-07-23T23:08:18.431Z,56.11
2018-07-23T23:10:51.839Z,56.05
2018-07-23T23:13:25.268Z,55.89
2018-07-23T23:15:58.736Z,56.03
2018-07-23T23:18:32.191Z,56.39
2018-07-23T23:21:05.589Z,56.10
2018-07-23T23:23:39.083Z,56.82
2018-07-23T23:26:12.455Z,56.18
2018-07-23T23:28:45.836Z,56.45
2018-07-23T23:31:19.214Z,56.46
2018-07-23T23:33:52.609Z,56.79
2018-07-23T23:36:26.007Z,56.54
2018-07-23T23:38:59.433Z,56.60
2018-07-23T23:41:32.825Z,57.26
2018-07-23T23:44:06.257Z,56.98
2018-07-23T23:46:39.697Z,57.28
2018-07-23T23:49:13.079Z,57.22
2018-07-23T23:51:46.459Z,57.68
2018-07-23T23:54:19.859Z,57.93
2018-07-23T23:56:53.252Z,58.01
2018-07-23T23:59:26.660Z,57.77
